Погода Новая Бряньна 2 недели

Республика Бурятия, Россия

14 - 27 июля
  • 14июля
    Сегодня
    +13°
    +27°
    Ясно и безоблачно
    ВремяПогодаТемператураВлажностьДавлениеВетер, м/сВероятность осадков
    02:00Небольшая облачность+13°C85 %705 мм1.7 м/с2 %
    05:00Ясно и безоблачно+12°C85 %705 мм1.7 м/с2 %
    08:00Ясно и безоблачно+18°C64 %706 мм1.0 м/с2 %
    11:00Ясно и безоблачно+23°C44 %707 мм1.9 м/с2 %
    14:00Ясно и безоблачно+26°C36 %706 мм2.6 м/с2 %
    17:00Практически безоблачно+27°C37 %705 мм2.8 м/с2 %
    20:00Ясно и безоблачно+24°C62 %705 мм1.1 м/с2 %
    23:00Ясно и безоблачно+17°C72 %704 мм1.4 м/с2 %
  • 15июля
    Понедельник
    +12°
    +29°
    Практически безоблачно
    ВремяПогодаТемператураВлажностьДавлениеВетер, м/сВероятность осадков
    02:00Облачно с прояснениями+15°C75 %704 мм0.7 м/с2 %
    05:00Практически безоблачно+13°C82 %704 мм0.6 м/с2 %
    08:00Небольшая облачность+18°C66 %705 мм0.2 м/с2 %
    11:00Облачно с прояснениями+26°C45 %705 мм0.6 м/с1 %
    14:00Практически безоблачно+28°C34 %704 мм2.0 м/с3 %
    17:00Небольшая облачность+29°C35 %703 мм2.2 м/с4 %
    20:00Ясно и безоблачно+25°C45 %703 мм2.4 м/с2 %
    23:00Ясно и безоблачно+19°C66 %703 мм1.1 м/с2 %
  • 16июля
    Вторник
    +13°
    +27°
    Небольшая облачность
    ВремяПогодаТемператураВлажностьДавлениеВетер, м/сВероятность осадков
    02:00Ясно и безоблачно+14°C79 %702 мм1.3 м/с2 %
    05:00Ясно и безоблачно+12°C83 %702 мм1.1 м/с2 %
    08:00Облачно с прояснениями+19°C59 %704 мм0.9 м/с2 %
    11:00Ясно и безоблачно+24°C43 %704 мм2.6 м/с3 %
    14:00Небольшая облачность+26°C38 %704 мм4.1 м/с21 %
    17:00Практически безоблачно+25°C49 %703 мм3.7 м/с19 %
    20:00Ясно и безоблачно+23°C57 %703 мм2.4 м/с3 %
    23:00Ясно и безоблачно+17°C76 %703 мм2.4 м/с2 %
  • 17июля
    Среда
    +12°
    +28°
    Практически безоблачно
    ВремяПогодаТемператураВлажностьДавлениеВетер, м/сВероятность осадков
    02:00Ясно и безоблачно+15°C92 %703 мм2.1 м/с2 %
    05:00Ясно и безоблачно+13°C93 %702 мм1.8 м/с2 %
    08:00Ясно и безоблачно+20°C69 %704 мм3.0 м/с2 %
    11:00Практически безоблачно+25°C56 %704 мм4.5 м/с22 %
    14:00Практически безоблачно+26°C47 %703 мм4.6 м/с34 %
    17:00Практически безоблачно+28°C40 %702 мм4.3 м/с10 %
    20:00Ясно и безоблачно+24°C49 %702 мм3.0 м/с2 %
    23:00Ясно и безоблачно+19°C67 %702 мм2.0 м/с2 %
  • 18июля
    Четверг
    +12°
    +30°
    Практически безоблачно
    ВремяПогодаТемператураВлажностьДавлениеВетер, м/сВероятность осадков
    02:00Ясно и безоблачно+15°C85 %701 мм1.7 м/с2 %
    05:00Ясно и безоблачно+13°C93 %700 мм1.3 м/с2 %
    08:00Ясно и безоблачно+20°C69 %701 мм1.1 м/с2 %
    11:00Практически безоблачно+27°C48 %701 мм2.8 м/с5 %
    14:00Практически безоблачно+29°C37 %700 мм3.5 м/с15 %
    17:00Ясно и безоблачно+29°C36 %699 мм3.2 м/с14 %
    20:00Ясно и безоблачно+26°C45 %698 мм2.6 м/с6 %
    23:00Ясно и безоблачно+19°C64 %698 мм1.2 м/с4 %
Мы используем cookies
Соглашаюсь